KEWN/EWN METAR and TAF weather

Enter ICAO airport designator
Station Type Date Time Source
KEWN METAR 2019/05/27 09:54 UTC NOAA

KEWN 270954Z 29005KT 10SM CLR 24/19 A2995 RMK AO2 SLP142 T02390194


Station Type Date Time Source
KEWN Decoded METAR 2019/05/27 09:54 UTC NOAA

New Bern, Craven County Regional Airport, NC, United States (KEWN) 35-04-03N 077-02-50W 3M
May 27, 2019 - 05:54 AM EDT / 2019.05.27 0954 UTC
Wind: from the WNW (290 degrees) at 6 MPH (5 KT):0
Visibility: 10 mile(s):0
Sky conditions: clear
Temperature: 75.0 F (23.9 C)
Dew Point: 66.9 F (19.4 C)
Relative Humidity: 75%
Pressure (altimeter): 29.95 in. Hg (1014 hPa)
ob: KEWN 270954Z 29005KT 10SM CLR 24/19 A2995 RMK AO2 SLP142 T02390194
cycle: 10

Station Type Date Time Source
KEWN TAF 2019/05/27 06:33 UTC NOAA

TAF KEWN 270530Z 2706/2806 VRB03KT P6SM FEW080
FM271500 30008KT P6SM SCT050
FM272200 36008KT P6SM SCT050
FM280000 VRB03KT P6SM SCT060

Example: see airport list